createdAt,value
2019-01-18T00:00:23.676Z,14.63
2019-01-18T00:02:52.336Z,13.83
2019-01-18T00:05:21.018Z,13.90
2019-01-18T00:07:49.736Z,13.60
2019-01-18T00:10:18.410Z,13.00
2019-01-18T00:12:47.081Z,14.70
2019-01-18T00:15:15.783Z,13.83
2019-01-18T00:17:44.562Z,12.80
2019-01-18T00:20:14.962Z,13.47
2019-01-18T00:22:43.764Z,13.47
2019-01-18T00:25:12.454Z,14.90
2019-01-18T00:27:41.146Z,15.70
2019-01-18T00:30:23.021Z,15.17
2019-01-18T00:32:51.671Z,15.30
2019-01-18T00:35:20.318Z,15.07
2019-01-18T00:37:49.068Z,16.47
2019-01-18T00:40:24.857Z,16.47
2019-01-18T00:42:54.004Z,16.60
2019-01-18T00:45:22.656Z,18.60
2019-01-18T00:47:51.320Z,18.23
2019-01-18T00:50:20.990Z,19.47
2019-01-18T00:52:49.674Z,18.90
2019-01-18T00:55:19.935Z,18.97
2019-01-18T00:57:48.936Z,20.07
2019-01-18T01:00:25.951Z,18.70
2019-01-18T01:02:54.638Z,18.47
2019-01-18T01:05:23.499Z,17.60
2019-01-18T01:07:52.167Z,19.60
2019-01-18T01:10:20.899Z,16.80
2019-01-18T01:12:49.552Z,18.83
2019-01-18T01:15:19.917Z,16.30
2019-01-18T01:17:48.801Z,16.93
2019-01-18T01:20:19.653Z,16.47
2019-01-18T01:22:48.290Z,19.77
2019-01-18T01:25:17.610Z,16.60
2019-01-18T01:27:46.275Z,16.63
2019-01-18T01:30:19.262Z,15.97
2019-01-18T01:32:48.042Z,16.87
2019-01-18T01:35:17.100Z,16.37
2019-01-18T01:37:45.759Z,16.20
2019-01-18T01:40:18.497Z,17.13
2019-01-18T01:42:47.169Z,15.37
2019-01-18T01:45:15.793Z,14.07
2019-01-18T01:47:44.563Z,13.90
2019-01-18T01:50:15.377Z,15.20
2019-01-18T01:52:44.039Z,15.40
2019-01-18T01:55:12.775Z,14.47
2019-01-18T01:57:41.438Z,15.17
2019-01-18T02:00:18.517Z,14.93
2019-01-18T02:02:47.177Z,15.03
2019-01-18T02:05:15.899Z,14.47
2019-01-18T02:07:44.821Z,14.87
2019-01-18T02:10:15.181Z,14.23
2019-01-18T02:12:43.828Z,15.03
2019-01-18T02:15:15.385Z,15.77
2019-01-18T02:17:44.300Z,15.63
2019-01-18T02:20:17.942Z,16.00
2019-01-18T02:22:46.640Z,14.77
2019-01-18T02:25:15.317Z,18.73
2019-01-18T02:27:45.047Z,15.23
2019-01-18T02:30:16.871Z,14.87
2019-01-18T02:32:45.516Z,15.80
2019-01-18T02:35:14.160Z,14.00
2019-01-18T02:37:42.862Z,14.43
2019-01-18T02:40:12.302Z,14.70
2019-01-18T02:42:42.418Z,14.50
2019-01-18T02:45:14.087Z,14.43
2019-01-18T02:47:42.820Z,14.33
2019-01-18T02:50:11.875Z,14.70
2019-01-18T02:52:40.556Z,14.10
2019-01-18T02:55:10.028Z,14.40
2019-01-18T02:57:40.288Z,15.20
2019-01-18T03:00:12.074Z,13.97
2019-01-18T03:02:40.725Z,14.60
2019-01-18T03:05:11.065Z,15.60
2019-01-18T03:07:39.791Z,14.03
2019-01-18T03:10:14.179Z,14.43
2019-01-18T03:12:42.866Z,14.23
2019-01-18T03:15:11.551Z,14.77
2019-01-18T03:17:40.184Z,19.35
2019-01-18T03:20:11.276Z,15.83
2019-01-18T03:22:39.951Z,15.87
2019-01-18T03:25:11.755Z,13.83
2019-01-18T03:27:42.013Z,13.53
2019-01-18T03:30:18.732Z,14.40
2019-01-18T03:32:43.722Z,13.47
2019-01-18T03:35:14.032Z,14.37
2019-01-18T03:37:42.637Z,14.40
2019-01-18T03:40:15.981Z,13.97
2019-01-18T03:42:44.671Z,13.33
2019-01-18T03:45:15.043Z,14.63
2019-01-18T03:47:43.760Z,14.47
2019-01-18T03:50:14.923Z,14.50
2019-01-18T03:52:43.573Z,14.03
2019-01-18T03:55:12.342Z,15.30
2019-01-18T03:57:42.547Z,14.83
2019-01-18T04:00:25.702Z,14.63
2019-01-18T04:02:49.822Z,14.77
2019-01-18T04:05:18.491Z,14.57
2019-01-18T04:07:47.199Z,14.87
2019-01-18T04:10:20.771Z,14.17
2019-01-18T04:12:49.416Z,19.05
2019-01-18T04:15:19.625Z,14.60
2019-01-18T04:17:48.313Z,17.73
2019-01-18T04:20:19.048Z,14.13
2019-01-18T04:22:47.825Z,14.13
2019-01-18T04:25:20.816Z,15.67
2019-01-18T04:27:49.475Z,15.43
2019-01-18T04:30:24.341Z,15.17
2019-01-18T04:32:53.038Z,15.47
2019-01-18T04:35:21.793Z,16.00
2019-01-18T04:37:51.371Z,14.63
2019-01-18T04:40:27.892Z,15.53
2019-01-18T04:42:56.974Z,16.00
2019-01-18T04:45:25.658Z,15.60
2019-01-18T04:47:54.285Z,15.27
2019-01-18T04:50:25.014Z,16.83
2019-01-18T04:52:53.719Z,16.80
2019-01-18T04:55:22.461Z,16.10
2019-01-18T04:57:51.183Z,16.77
2019-01-18T05:00:22.430Z,16.30
2019-01-18T05:02:51.075Z,22.15
2019-01-18T05:05:20.529Z,18.33
2019-01-18T05:07:49.217Z,18.10
2019-01-18T05:10:20.375Z,16.97
2019-01-18T05:12:49.101Z,17.17
2019-01-18T05:15:20.008Z,16.97
2019-01-18T05:17:48.755Z,16.50
2019-01-18T05:20:17.441Z,16.20
2019-01-18T05:22:46.104Z,15.87
2019-01-18T05:25:14.777Z,17.20
2019-01-18T05:27:43.519Z,16.37
2019-01-18T05:30:15.072Z,15.63
2019-01-18T05:32:43.746Z,16.90
2019-01-18T05:35:12.533Z,16.43
2019-01-18T05:37:41.176Z,17.07
2019-01-18T05:40:15.454Z,16.97
2019-01-18T05:42:44.856Z,17.83
2019-01-18T05:45:17.810Z,17.33
2019-01-18T05:47:46.516Z,16.33
2019-01-18T05:50:17.279Z,16.80
2019-01-18T05:52:45.968Z,16.63
2019-01-18T05:55:14.714Z,19.97
2019-01-18T05:57:43.360Z,15.40
2019-01-18T06:00:19.324Z,24.07
2019-01-18T06:02:48.419Z,18.03
2019-01-18T06:05:18.651Z,18.70
2019-01-18T06:07:47.364Z,18.30
2019-01-18T06:10:16.029Z,18.80
2019-01-18T06:12:44.730Z,19.00
2019-01-18T06:15:14.994Z,19.13
2019-01-18T06:17:43.655Z,19.47
2019-01-18T06:20:16.592Z,19.47
2019-01-18T06:22:45.306Z,18.57
2019-01-18T06:25:14.161Z,18.57
2019-01-18T06:27:42.854Z,18.60
2019-01-18T06:30:17.376Z,18.77
2019-01-18T06:32:46.023Z,18.83
2019-01-18T06:35:14.903Z,18.13
2019-01-18T06:37:44.052Z,18.23
2019-01-18T06:40:18.654Z,18.20
2019-01-18T06:42:47.320Z,18.30
2019-01-18T06:45:27.395Z,18.33
2019-01-18T06:47:58.877Z,21.75
2019-01-18T06:50:27.578Z,18.20
2019-01-18T06:52:56.390Z,18.27
2019-01-18T06:55:25.087Z,17.67
2019-01-18T06:57:53.783Z,16.53
2019-01-18T07:00:28.128Z,16.80
2019-01-18T07:02:56.900Z,17.17
2019-01-18T07:05:25.488Z,18.33
2019-01-18T07:07:54.194Z,17.77
2019-01-18T07:10:24.382Z,18.13
2019-01-18T07:12:53.022Z,16.70
2019-01-18T07:15:21.734Z,17.43
2019-01-18T07:17:50.365Z,17.40
2019-01-18T07:20:20.528Z,17.23
2019-01-18T07:22:51.517Z,17.00
2019-01-18T07:25:25.091Z,17.20
2019-01-18T07:27:53.804Z,18.13
2019-01-18T07:30:25.207Z,19.53
2019-01-18T07:32:53.890Z,18.13
2019-01-18T07:35:22.643Z,18.93
2019-01-18T07:37:51.390Z,17.67
2019-01-18T07:40:21.543Z,18.40
2019-01-18T07:42:50.260Z,17.90
2019-01-18T07:45:24.113Z,17.87
2019-01-18T07:47:52.743Z,17.13
2019-01-18T07:50:21.454Z,20.10
2019-01-18T07:52:50.251Z,17.90
2019-01-18T07:55:18.942Z,16.20
2019-01-18T07:57:47.673Z,15.40
2019-01-18T08:00:22.190Z,16.13
2019-01-18T08:02:51.937Z,16.70
2019-01-18T08:05:21.465Z,15.50
2019-01-18T08:07:50.102Z,15.87
2019-01-18T08:10:23.318Z,16.07
2019-01-18T08:12:51.995Z,16.10
2019-01-18T08:15:24.270Z,16.50
2019-01-18T08:17:53.068Z,16.43
2019-01-18T08:20:23.534Z,16.43
2019-01-18T08:22:52.186Z,16.07
2019-01-18T08:25:20.903Z,15.73
2019-01-18T08:27:49.557Z,15.73
2019-01-18T08:30:20.145Z,15.77
2019-01-18T08:32:48.861Z,18.07
2019-01-18T08:35:18.848Z,15.77
2019-01-18T08:37:47.545Z,17.17
2019-01-18T08:40:22.033Z,17.50
2019-01-18T08:42:50.733Z,22.27
2019-01-18T08:45:24.644Z,27.33
2019-01-18T08:47:53.346Z,21.03
2019-01-18T08:50:22.040Z,16.27
2019-01-18T08:52:50.726Z,17.10
2019-01-18T08:55:19.431Z,16.73
2019-01-18T08:57:48.109Z,15.67
2019-01-18T09:00:22.716Z,15.33
2019-01-18T09:02:53.055Z,16.43
2019-01-18T09:05:25.282Z,17.53
2019-01-18T09:07:55.515Z,16.73
2019-01-18T09:10:40.081Z,18.03
2019-01-18T09:13:08.794Z,16.67
2019-01-18T09:15:37.505Z,16.73
2019-01-18T09:18:06.180Z,17.97
2019-01-18T09:20:34.913Z,17.27
2019-01-18T09:23:03.571Z,20.43
2019-01-18T09:25:32.210Z,18.63
2019-01-18T09:28:00.899Z,17.67
2019-01-18T09:30:32.354Z,19.55
2019-01-18T09:33:01.497Z,18.43
2019-01-18T09:35:30.184Z,18.63
2019-01-18T09:38:00.349Z,17.10
2019-01-18T09:40:30.730Z,17.77
2019-01-18T09:42:59.473Z,17.10
2019-01-18T09:45:28.264Z,17.73
2019-01-18T09:47:56.982Z,17.60
2019-01-18T09:50:31.071Z,19.23
2019-01-18T09:53:00.261Z,18.17
2019-01-18T09:55:28.911Z,16.97
2019-01-18T09:57:57.636Z,20.80
2019-01-18T10:00:31.632Z,22.07
2019-01-18T10:03:00.283Z,20.37
2019-01-18T10:05:29.342Z,20.10
2019-01-18T10:07:58.011Z,19.27
2019-01-18T10:10:26.664Z,17.73
2019-01-18T10:12:55.388Z,16.83
2019-01-18T10:15:26.801Z,16.63
2019-01-18T10:18:00.568Z,19.00
2019-01-18T10:20:25.823Z,18.37
2019-01-18T10:22:54.528Z,16.60
2019-01-18T10:25:23.499Z,18.30
2019-01-18T10:27:52.253Z,16.63
2019-01-18T10:30:25.797Z,17.83
2019-01-18T10:32:56.101Z,18.10
2019-01-18T10:35:25.744Z,17.77
2019-01-18T10:37:54.446Z,17.03
2019-01-18T10:40:23.244Z,19.90
2019-01-18T10:42:51.916Z,17.57
2019-01-18T10:45:20.683Z,17.27
2019-01-18T10:47:50.168Z,19.17
2019-01-18T10:50:27.095Z,19.47
2019-01-18T10:52:55.790Z,21.87
2019-01-18T10:55:24.457Z,20.63
2019-01-18T10:57:53.109Z,22.50
2019-01-18T11:00:24.700Z,28.02
2019-01-18T11:02:53.296Z,21.87
2019-01-18T11:05:22.588Z,21.20
2019-01-18T11:07:51.266Z,19.33
2019-01-18T11:10:19.911Z,20.53
2019-01-18T11:12:48.603Z,19.53
2019-01-18T11:15:23.466Z,21.37
2019-01-18T11:17:52.208Z,19.63
2019-01-18T11:20:30.068Z,20.10
2019-01-18T11:23:00.035Z,19.60
2019-01-18T11:25:31.903Z,19.57
2019-01-18T11:27:59.596Z,19.63
2019-01-18T11:30:28.248Z,25.17
2019-01-18T11:32:56.908Z,20.80
2019-01-18T11:35:25.614Z,20.50
2019-01-18T11:37:54.300Z,19.20
2019-01-18T11:40:24.595Z,19.77
2019-01-18T11:42:53.397Z,21.17
2019-01-18T11:45:22.066Z,20.00
2019-01-18T11:47:50.740Z,22.37
2019-01-18T11:50:24.512Z,21.77
2019-01-18T11:52:53.164Z,22.47
2019-01-18T11:55:21.824Z,20.50
2019-01-18T11:57:50.508Z,33.67
2019-01-18T12:00:29.098Z,28.73
2019-01-18T12:02:57.809Z,25.40
2019-01-18T12:05:26.437Z,21.63
2019-01-18T12:07:55.119Z,24.17
2019-01-18T12:10:26.573Z,21.27
2019-01-18T12:12:55.242Z,24.03
2019-01-18T12:15:24.103Z,23.87
2019-01-18T12:17:52.865Z,20.50
2019-01-18T12:20:29.723Z,20.60
2019-01-18T12:22:58.463Z,26.10
2019-01-18T12:25:27.212Z,21.70
2019-01-18T12:27:55.912Z,23.77
2019-01-18T12:30:34.306Z,20.70
2019-01-18T12:33:02.954Z,22.83
2019-01-18T12:35:31.597Z,21.57
2019-01-18T12:38:00.336Z,21.03
2019-01-18T12:40:30.087Z,21.07
2019-01-18T12:42:58.758Z,21.57
2019-01-18T12:45:27.477Z,21.23
2019-01-18T12:47:56.160Z,21.47
2019-01-18T12:50:27.354Z,20.37
2019-01-18T12:52:56.110Z,26.00
2019-01-18T12:55:24.812Z,21.97
2019-01-18T12:57:53.498Z,21.53
2019-01-18T13:00:24.601Z,22.27
2019-01-18T13:02:53.314Z,22.67
2019-01-18T13:05:30.827Z,21.80
2019-01-18T13:07:59.523Z,22.33
2019-01-18T13:10:28.235Z,22.80
2019-01-18T13:12:56.991Z,22.43
2019-01-18T13:15:46.749Z,23.17
2019-01-18T13:18:15.427Z,21.60
2019-01-18T13:20:44.107Z,21.27
2019-01-18T13:23:12.772Z,22.83
2019-01-18T13:25:41.523Z,23.33
2019-01-18T13:28:10.112Z,21.57
2019-01-18T13:30:38.818Z,23.93
2019-01-18T13:33:07.515Z,25.80
2019-01-18T13:35:36.153Z,27.27
2019-01-18T13:38:04.777Z,25.77
2019-01-18T13:40:33.478Z,25.50
2019-01-18T13:43:02.130Z,24.73
2019-01-18T13:45:30.802Z,26.67
2019-01-18T13:47:59.511Z,24.80
2019-01-18T13:50:28.165Z,26.13
2019-01-18T13:52:56.825Z,26.07
2019-01-18T13:55:30.259Z,25.97
2019-01-18T13:57:58.950Z,27.50
2019-01-18T14:00:27.618Z,27.50
2019-01-18T14:02:56.330Z,27.03
2019-01-18T14:05:26.558Z,26.50
2019-01-18T14:07:55.221Z,27.17
2019-01-18T14:10:32.753Z,31.70
2019-01-18T14:13:01.498Z,27.13
2019-01-18T14:15:30.196Z,28.07
2019-01-18T14:17:58.848Z,27.83
2019-01-18T14:20:28.521Z,32.80
2019-01-18T14:22:57.188Z,29.70
2019-01-18T14:25:25.888Z,30.27
2019-01-18T14:27:54.559Z,30.27
2019-01-18T14:30:25.655Z,31.20
2019-01-18T14:32:55.551Z,31.17
2019-01-18T14:35:24.690Z,31.63
2019-01-18T14:37:53.361Z,30.17
2019-01-18T14:40:22.111Z,30.83
2019-01-18T14:42:52.379Z,32.57
2019-01-18T14:45:26.266Z,32.10
2019-01-18T14:47:54.972Z,31.17
2019-01-18T14:50:23.606Z,31.63
2019-01-18T14:52:52.315Z,31.53
2019-01-18T14:55:20.977Z,32.73
2019-01-18T14:57:49.612Z,32.70
2019-01-18T15:00:23.908Z,32.23
2019-01-18T15:02:52.550Z,32.27
2019-01-18T15:05:21.185Z,32.93
2019-01-18T15:07:49.982Z,33.80
2019-01-18T15:10:21.873Z,34.10
2019-01-18T15:12:52.625Z,31.73
2019-01-18T15:15:21.327Z,35.87
2019-01-18T15:17:50.891Z,38.07
2019-01-18T15:20:30.288Z,33.70
2019-01-18T15:22:58.915Z,30.90
2019-01-18T15:25:27.562Z,40.83
2019-01-18T15:27:56.307Z,33.50
2019-01-18T15:30:32.553Z,31.63
2019-01-18T15:33:01.268Z,30.70
2019-01-18T15:35:31.870Z,29.47
2019-01-18T15:38:00.570Z,30.90
2019-01-18T15:40:31.817Z,31.00
2019-01-18T15:43:01.587Z,33.23
2019-01-18T15:45:30.275Z,34.47
2019-01-18T15:47:59.008Z,33.77
2019-01-18T15:50:32.405Z,34.00
2019-01-18T15:53:01.045Z,33.23
2019-01-18T15:55:30.066Z,34.33
2019-01-18T15:57:58.698Z,30.90
2019-01-18T16:00:33.031Z,30.17
2019-01-18T16:03:01.716Z,32.07
2019-01-18T16:05:34.357Z,32.43
2019-01-18T16:08:02.970Z,34.37
2019-01-18T16:10:31.715Z,34.10
2019-01-18T16:13:00.459Z,35.20
2019-01-18T16:15:34.815Z,35.27
2019-01-18T16:18:05.877Z,32.70
2019-01-18T16:20:35.680Z,32.37
2019-01-18T16:23:04.345Z,30.60
2019-01-18T16:25:33.061Z,33.20
2019-01-18T16:28:01.778Z,32.27
2019-01-18T16:30:30.410Z,32.33
2019-01-18T16:32:59.122Z,31.93
2019-01-18T16:35:27.912Z,32.97
2019-01-18T16:37:56.550Z,32.50
2019-01-18T16:40:27.887Z,30.43
2019-01-18T16:43:02.633Z,31.73
2019-01-18T16:45:31.283Z,31.53
2019-01-18T16:48:00.020Z,30.23
2019-01-18T16:50:28.740Z,30.40
2019-01-18T16:52:57.392Z,31.07
2019-01-18T16:55:26.126Z,29.73
2019-01-18T16:57:54.789Z,30.00
2019-01-18T17:00:31.616Z,30.97
2019-01-18T17:03:00.272Z,29.93
2019-01-18T17:05:30.493Z,30.43
2019-01-18T17:07:59.188Z,30.23
2019-01-18T17:10:27.845Z,31.00
2019-01-18T17:12:56.493Z,42.38
2019-01-18T17:15:26.030Z,32.73
2019-01-18T17:17:54.676Z,31.90
2019-01-18T17:20:31.754Z,33.00
2019-01-18T17:23:00.413Z,34.03
2019-01-18T17:25:30.281Z,36.23
2019-01-18T17:27:58.987Z,34.13
2019-01-18T17:30:32.012Z,33.40
2019-01-18T17:33:00.682Z,34.03
2019-01-18T17:35:38.120Z,32.40
2019-01-18T17:38:32.286Z,31.40
2019-01-18T17:41:04.085Z,31.20
2019-01-18T17:43:41.663Z,31.57
2019-01-18T17:46:31.506Z,29.93
2019-01-18T17:49:08.941Z,29.87
2019-01-18T17:52:08.891Z,30.63
2019-01-18T17:54:49.262Z,30.33
2019-01-18T17:57:23.877Z,29.57
2019-01-18T18:00:26.457Z,31.70
2019-01-18T18:03:07.342Z,31.27
2019-01-18T18:05:49.700Z,30.80
2019-01-18T18:08:30.040Z,31.17
2019-01-18T18:11:21.341Z,30.37
2019-01-18T18:14:09.844Z,33.63
2019-01-18T18:16:57.881Z,29.73
2019-01-18T18:19:56.625Z,30.40
2019-01-18T18:22:55.162Z,32.73
2019-01-18T18:25:29.788Z,31.67
2019-01-18T18:28:28.776Z,35.80
2019-01-18T18:31:06.465Z,31.43
2019-01-18T18:33:59.229Z,33.17
2019-01-18T18:36:32.361Z,50.23
2019-01-18T18:39:19.045Z,35.53
2019-01-18T18:41:56.478Z,32.53
2019-01-18T18:44:33.842Z,31.13
2019-01-18T18:47:42.233Z,31.07
2019-01-18T18:50:39.249Z,30.90
2019-01-18T18:53:34.369Z,28.63
2019-01-18T18:56:36.177Z,29.27
2019-01-18T18:59:20.034Z,25.03
2019-01-18T19:02:08.304Z,26.43
2019-01-18T19:04:43.082Z,37.97
2019-01-18T19:07:26.520Z,29.50
2019-01-18T19:10:01.308Z,28.30
2019-01-18T19:12:38.868Z,27.23
2019-01-18T19:15:44.781Z,27.23
2019-01-18T19:18:19.100Z,27.00
2019-01-18T19:21:19.060Z,27.03
2019-01-18T19:23:53.734Z,27.13
2019-01-18T19:26:49.352Z,27.00
2019-01-18T19:29:34.472Z,36.42
2019-01-18T19:32:14.811Z,29.87
2019-01-18T19:35:01.237Z,28.90
2019-01-18T19:37:52.708Z,28.93
2019-01-18T19:40:30.290Z,29.57
2019-01-18T19:44:05.216Z,29.80
2019-01-18T19:46:29.039Z,27.53
2019-01-18T19:49:05.997Z,27.47
2019-01-18T19:52:01.172Z,29.00
2019-01-18T19:54:41.343Z,29.17
2019-01-18T20:00:30.247Z,29.00
2019-01-18T20:06:25.858Z,31.50
2019-01-18T20:09:02.793Z,29.83
2019-01-18T20:11:43.252Z,30.57
2019-01-18T20:14:31.230Z,31.53
2019-01-18T20:17:08.550Z,32.57
2019-01-18T20:19:45.563Z,33.47
2019-01-18T20:22:17.410Z,41.57
2019-01-18T20:25:10.227Z,32.00
2019-01-18T20:27:54.111Z,37.87
2019-01-18T20:30:31.496Z,35.87
2019-01-18T20:33:09.198Z,30.40
2019-01-18T20:35:49.892Z,30.03
2019-01-18T20:38:21.751Z,30.63
2019-01-18T20:41:08.316Z,34.10
2019-01-18T20:47:02.301Z,36.60
2019-01-18T20:49:45.429Z,28.47
2019-01-18T20:52:37.810Z,29.00
2019-01-18T20:55:13.964Z,30.97
2019-01-18T20:57:49.208Z,28.47
2019-01-18T21:00:26.758Z,27.60
2019-01-18T21:03:01.132Z,31.27
2019-01-18T21:05:50.823Z,31.70
2019-01-18T21:08:48.060Z,34.50
2019-01-18T21:11:25.600Z,34.20
2019-01-18T21:14:01.817Z,31.57
2019-01-18T21:16:33.639Z,29.57
2019-01-18T21:19:23.499Z,49.42
2019-01-18T21:22:26.868Z,32.37
2019-01-18T21:25:12.222Z,28.13
2019-01-18T21:27:57.057Z,27.27
2019-01-18T21:30:34.921Z,24.93
2019-01-18T21:33:37.234Z,24.53
2019-01-18T21:36:09.103Z,22.80
2019-01-18T21:38:43.240Z,22.87
2019-01-18T21:41:30.557Z,23.23
2019-01-18T21:44:04.953Z,22.50
2019-01-18T21:46:48.529Z,23.27
2019-01-18T21:49:29.322Z,23.40
2019-01-18T21:52:08.992Z,22.20
2019-01-18T21:55:03.810Z,22.47
2019-01-18T21:57:56.632Z,23.10
2019-01-18T22:00:28.428Z,23.80
2019-01-18T22:03:05.886Z,22.80
2019-01-18T22:06:06.257Z,23.97
2019-01-18T22:08:43.932Z,33.08
2019-01-18T22:11:15.683Z,24.80
2019-01-18T22:14:12.963Z,24.70
2019-01-18T22:17:03.781Z,23.07
2019-01-18T22:19:41.360Z,23.67
2019-01-18T22:22:31.006Z,30.33
2019-01-18T22:25:19.228Z,25.50
2019-01-18T22:28:02.881Z,26.40
2019-01-18T22:30:46.740Z,27.07
2019-01-18T22:33:33.536Z,25.73
2019-01-18T22:36:05.382Z,25.83
2019-01-18T22:38:48.916Z,28.53
2019-01-18T22:41:26.424Z,24.00
2019-01-18T22:44:04.212Z,19.00
2019-01-18T22:46:53.839Z,21.43
2019-01-18T22:49:46.496Z,22.53
2019-01-18T22:52:30.004Z,23.10
2019-01-18T22:55:28.482Z,23.07
2019-01-18T22:58:16.812Z,23.30
2019-01-18T23:01:08.029Z,23.13
2019-01-18T23:03:51.781Z,22.63
2019-01-18T23:06:32.208Z,24.97
2019-01-18T23:09:10.110Z,24.10
2019-01-18T23:12:01.363Z,23.37
2019-01-18T23:15:09.132Z,22.57
2019-01-18T23:17:46.634Z,23.33
2019-01-18T23:20:34.517Z,24.03
2019-01-18T23:23:35.846Z,25.17
2019-01-18T23:26:19.320Z,26.77
2019-01-18T23:29:10.330Z,25.07
2019-01-18T23:32:06.099Z,24.33
2019-01-18T23:34:43.199Z,22.63
2019-01-18T23:37:15.054Z,30.43
2019-01-18T23:39:46.849Z,24.40
2019-01-18T23:42:25.355Z,21.97
2019-01-18T23:44:59.865Z,25.27
2019-01-18T23:47:34.558Z,25.43
2019-01-18T23:50:21.480Z,22.77
2019-01-18T23:53:14.902Z,23.93
2019-01-18T23:56:10.208Z,24.20
2019-01-18T23:58:53.592Z,30.07
